Time;durP1;ratioP1;P1;durP2;ratioP2;P2;SDS_P1;SDS_P2;PMS_P1;PMS_P2;Temp;Humidity;BMP_temperature;BMP_pressure;BME280_temperature;BME280_humidity;BME280_pressure;Samples;Min_cycle;Max_cycle;Signal;HPM_P1;HPM_P2
2022/01/08 00:00:27;;;;;;;;;;;-0.10;99.90;;;;;;5078874;28;20081;-68
2022/01/08 00:02:54;;;;;;;1.23;0.82;;;-0.10;99.90;;;;;;5079260;28;19927;-68
2022/01/08 00:05:21;;;;;;;1.45;0.77;;;-0.20;99.90;;;;;;5079489;28;20234;-68
2022/01/08 00:07:48;;;;;;;0.65;0.65;;;-0.20;99.90;;;;;;5078285;28;20109;-68
2022/01/08 00:10:15;;;;;;;1.17;0.70;;;-0.30;99.90;;;;;;5079161;28;20129;-68
2022/01/08 00:12:43;;;;;;;1.65;0.70;;;-0.40;99.90;;;;;;5078939;28;20079;-68
2022/01/08 00:15:10;;;;;;;1.40;0.80;;;-0.40;99.90;;;;;;5077729;28;20385;-69
2022/01/08 00:17:37;;;;;;;2.08;0.50;;;-0.50;99.90;;;;;;5077544;28;20105;-67
2022/01/08 00:20:05;;;;;;;1.67;0.98;;;-0.50;99.90;;;;;;5076451;28;20112;-68
2022/01/08 00:22:32;;;;;;;1.92;0.70;;;-0.60;99.90;;;;;;5077526;28;20052;-68
2022/01/08 00:24:58;;;;;;;1.27;0.65;;;-0.60;99.90;;;;;;5076203;28;20566;-68
2022/01/08 00:27:25;;;;;;;;;;;-0.70;99.90;;;;;;5077855;28;20536;-68
2022/01/08 00:29:52;;;;;;;4.03;0.70;;;-0.70;99.90;;;;;;5074407;28;19920;-68
2022/01/08 00:32:18;;;;;;;;;;;-0.70;99.90;;;;;;5077497;28;20101;-68
2022/01/08 00:34:45;;;;;;;0.70;0.70;;;-0.80;99.90;;;;;;5077605;28;20141;-68
2022/01/08 00:37:12;;;;;;;;;;;-0.80;99.90;;;;;;5077258;28;20059;-68
2022/01/08 00:39:39;;;;;;;1.10;0.65;;;-0.80;99.90;;;;;;5076579;28;19950;-68
2022/01/08 00:42:06;;;;;;;4.43;0.60;;;-0.80;99.90;;;;;;5077465;28;20359;-68
2022/01/08 00:44:33;;;;;;;1.75;0.50;;;-0.90;99.90;;;;;;5075887;28;20101;-68
2022/01/08 00:46:59;;;;;;;;;;;-0.90;99.90;;;;;;5077627;28;20044;-68
2022/01/08 00:49:27;;;;;;;0.82;0.63;;;-0.80;99.90;;;;;;5076171;28;20382;-68
2022/01/08 00:51:54;;;;;;;2.55;0.70;;;-0.80;99.90;;;;;;5076408;28;20112;-68
2022/01/08 00:54:21;;;;;;;1.80;0.60;;;-0.80;99.90;;;;;;5075621;28;20299;-69
2022/01/08 00:56:48;;;;;;;;;;;-0.80;99.90;;;;;;5076134;28;20109;-68
2022/01/08 00:59:15;;;;;;;1.77;0.70;;;-0.80;99.90;;;;;;5076177;28;19946;-69
2022/01/08 01:01:42;;;;;;;;;;;-0.80;99.90;;;;;;5077551;28;20110;-69
2022/01/08 01:04:09;;;;;;;0.50;0.50;;;-0.80;99.90;;;;;;5076735;28;19924;-69
2022/01/08 01:06:36;;;;;;;0.70;0.63;;;-0.80;99.90;;;;;;5076747;28;20552;-68
2022/01/08 01:09:02;;;;;;;0.70;0.70;;;-0.80;99.90;;;;;;5074095;28;20449;-68
2022/01/08 01:11:29;;;;;;;;;;;-0.80;99.90;;;;;;5069488;28;20445;-68
2022/01/08 01:13:56;;;;;;;1.70;0.80;;;-0.80;99.90;;;;;;5067491;28;19977;-68
2022/01/08 01:16:22;;;;;;;;;;;-0.80;99.90;;;;;;5076779;28;20061;-69
2022/01/08 01:18:49;;;;;;;2.00;0.70;;;-0.80;99.90;;;;;;5075957;28;20146;-68
2022/01/08 01:21:16;;;;;;;0.70;0.70;;;-0.80;99.90;;;;;;5075130;28;20573;-68
2022/01/08 01:23:44;;;;;;;0.85;0.65;;;-0.80;99.90;;;;;;5076374;28;20075;-68
2022/01/08 01:26:17;;;;;;;4.00;1.42;;;-0.80;99.90;;;;;;5076095;28;20044;-68
2022/01/08 01:42:31;;;;;;;0.70;0.70;;;-0.70;99.90;;;;;;5075776;28;20550;-68
2022/01/08 01:47:42;;;;;;;1.15;0.80;;;-0.70;99.90;;;;;;5076022;28;20558;-68
2022/01/08 01:50:10;;;;;;;1.60;0.63;;;-0.70;99.90;;;;;;5075490;28;20044;-68
2022/01/08 01:52:37;;;;;;;1.33;0.57;;;-0.70;99.90;;;;;;5075592;28;20557;-68
2022/01/08 01:55:05;;;;;;;0.52;0.52;;;-0.70;99.90;;;;;;5073991;28;20032;-69
2022/01/08 01:57:32;;;;;;;0.50;0.50;;;-0.70;99.90;;;;;;5073311;28;20097;-68
2022/01/08 01:59:59;;;;;;;1.33;0.47;;;-0.70;99.90;;;;;;5075426;28;20044;-68
2022/01/08 02:02:25;;;;;;;1.75;0.60;;;-0.70;99.90;;;;;;5075637;28;20089;-68
2022/01/08 02:04:52;;;;;;;0.60;0.60;;;-0.80;99.90;;;;;;5074512;28;20079;-68
2022/01/08 02:07:21;;;;;;;0.88;0.60;;;-0.80;99.90;;;;;;5076057;28;20052;-68
2022/01/08 02:09:47;;;;;;;1.63;0.80;;;-0.80;99.90;;;;;;5074347;28;20055;-68
2022/01/08 02:12:18;;;;;;;2.10;0.80;;;-0.80;99.90;;;;;;5075511;28;20068;-68
2022/01/08 02:14:45;;;;;;;1.70;0.63;;;-0.80;99.90;;;;;;5075817;28;20090;-68
2022/01/08 02:17:12;;;;;;;8.70;0.98;;;-0.90;99.90;;;;;;5074849;28;20043;-68
2022/01/08 02:19:40;;;;;;;1.33;0.63;;;-0.80;99.90;;;;;;5072938;28;20131;-68
2022/01/08 02:22:10;;;;;;;1.77;0.90;;;-0.80;99.90;;;;;;5074202;28;20649;-69
2022/01/08 02:24:37;;;;;;;0.70;0.60;;;-0.80;99.90;;;;;;5075249;28;20549;-69
2022/01/08 02:27:04;;;;;;;1.17;0.68;;;-0.80;99.90;;;;;;5074990;28;20623;-68
2022/01/08 02:29:31;;;;;;;3.20;1.75;;;-0.80;99.90;;;;;;5074108;28;20129;-68
2022/01/08 02:31:59;;;;;;;;;;;-0.70;99.90;;;;;;5076192;28;20085;-68
2022/01/08 02:34:27;;;;;;;1.15;0.52;;;-0.70;99.90;;;;;;5073901;28;19920;-68
2022/01/08 02:36:55;;;;;;;3.53;0.70;;;-0.70;99.90;;;;;;5075508;28;20032;-68
2022/01/08 02:39:22;;;;;;;0.60;0.60;;;-0.60;99.90;;;;;;5074797;28;20047;-68
2022/01/08 02:41:54;;;;;;;0.57;0.43;;;-0.60;99.90;;;;;;5074368;28;20105;-69
2022/01/08 02:44:23;;;;;;;2.92;0.77;;;-0.50;99.90;;;;;;5075650;28;20494;-68
2022/01/08 02:46:50;;;;;;;1.73;0.55;;;-0.50;99.90;;;;;;5074702;28;20509;-68
2022/01/08 02:49:17;;;;;;;0.40;0.40;;;-0.40;99.90;;;;;;5074492;28;20074;-68
2022/01/08 02:51:44;;;;;;;0.40;0.40;;;-0.40;99.90;;;;;;5075871;28;20052;-69
2022/01/08 02:54:11;;;;;;;1.85;1.05;;;-0.30;99.90;;;;;;5075685;28;20044;-68
2022/01/08 02:56:44;;;;;;;1.27;0.60;;;-0.10;99.90;;;;;;5074983;28;20056;-68
2022/01/08 02:59:13;;;;;;;0.50;0.50;;;0.00;99.90;;;;;;5074661;28;20533;-69
2022/01/08 03:01:40;;;;;;;0.63;0.63;;;0.10;99.90;;;;;;5075315;28;20502;-68
2022/01/08 03:04:07;;;;;;;1.60;0.50;;;0.20;99.90;;;;;;5075706;28;20278;-68
2022/01/08 03:06:34;;;;;;;5.68;0.93;;;0.30;99.90;;;;;;5075668;28;20048;-67
2022/01/08 03:09:01;;;;;;;;;;;0.30;99.90;;;;;;5074819;28;20040;-71
2022/01/08 03:11:28;;;;;;;1.20;0.70;;;0.40;99.90;;;;;;5074263;28;20384;-68
2022/01/08 03:13:55;;;;;;;0.55;0.50;;;0.40;99.90;;;;;;5075130;28;20048;-70
2022/01/08 03:16:22;;;;;;;2.33;0.43;;;0.40;99.90;;;;;;5075221;28;20040;-69
2022/01/08 03:18:49;;;;;;;2.60;0.60;;;0.40;99.90;;;;;;5073599;28;20096;-66
2022/01/08 03:21:20;;;;;;;0.63;0.63;;;0.40;99.90;;;;;;5075159;28;20520;-67
2022/01/08 03:23:53;;;;;;;1.13;0.70;;;0.40;99.90;;;;;;5074308;28;20056;-67
2022/01/08 03:26:23;;;;;;;0.57;0.57;;;0.40;99.90;;;;;;5073149;28;20558;-68
2022/01/08 03:28:50;;;;;;;1.77;0.60;;;0.40;99.90;;;;;;5073657;28;20094;-71
2022/01/08 03:31:17;;;;;;;0.50;0.50;;;0.50;99.90;;;;;;5072597;28;20039;-68
2022/01/08 03:33:45;;;;;;;0.35;0.30;;;0.60;99.90;;;;;;5076609;28;20067;-68
2022/01/08 03:36:12;;;;;;;1.48;0.40;;;0.70;99.90;;;;;;5077828;28;20344;-69
2022/01/08 03:38:39;;;;;;;1.40;0.77;;;0.70;99.90;;;;;;5077995;28;20048;-69
2022/01/08 03:41:06;;;;;;;1.48;0.77;;;0.80;99.90;;;;;;5076888;28;20048;-69
2022/01/08 03:43:34;;;;;;;1.38;0.40;;;0.80;99.90;;;;;;5077541;28;20348;-68
2022/01/08 03:46:03;;;;;;;0.82;0.60;;;0.90;99.90;;;;;;5076658;28;20101;-69
2022/01/08 03:48:45;;;;;;;0.50;0.50;;;0.90;99.90;;;;;;5076455;28;20097;-68
2022/01/08 03:51:14;;;;;;;1.80;0.70;;;0.90;99.90;;;;;;5077612;28;20044;-69
2022/01/08 03:53:42;;;;;;;1.23;0.60;;;0.80;99.90;;;;;;5076443;28;20729;-68
2022/01/08 03:56:09;;;;;;;1.08;0.45;;;0.80;99.90;;;;;;5077038;28;20048;-67
2022/01/08 03:58:36;;;;;;;1.75;0.60;;;0.80;99.90;;;;;;5075878;28;20101;-69
2022/01/08 04:01:03;;;;;;;2.55;0.47;;;0.80;99.90;;;;;;5075750;28;20048;-69
2022/01/08 04:03:30;;;;;;;2.35;0.80;;;0.70;99.90;;;;;;5075822;28;20055;-69
2022/01/08 04:05:57;;;;;;;;;;;0.70;99.90;;;;;;5074852;28;20044;-69
2022/01/08 04:08:24;;;;;;;2.78;0.55;;;0.70;99.90;;;;;;5077438;28;20437;-70
2022/01/08 04:10:50;;;;;;;0.40;0.40;;;0.70;99.90;;;;;;5077457;28;20047;-67
2022/01/08 04:13:23;;;;;;;;;;;0.60;99.90;;;;;;5076875;28;20048;-67
2022/01/08 04:15:53;;;;;;;0.30;0.30;;;0.60;99.90;;;;;;5077651;28;19928;-68
2022/01/08 04:18:20;;;;;;;0.40;0.40;;;0.60;99.90;;;;;;5077005;28;20055;-69
2022/01/08 04:21:01;;;;;;;0.50;0.50;;;0.70;99.90;;;;;;5075984;28;20056;-68
2022/01/08 04:23:28;;;;;;;0.25;0.25;;;0.70;99.90;;;;;;5078642;28;20043;-71
2022/01/08 04:25:55;;;;;;;0.57;0.57;;;0.70;99.90;;;;;;5077976;28;20060;-66
2022/01/08 04:28:22;;;;;;;;;;;0.70;99.90;;;;;;5079729;28;20505;-68
2022/01/08 04:30:49;;;;;;;0.68;0.60;;;0.70;99.90;;;;;;5077888;28;19950;-72
2022/01/08 04:33:15;;;;;;;;;;;0.70;99.90;;;;;;5077412;28;20052;-71
2022/01/08 04:35:42;;;;;;;0.85;0.65;;;0.70;99.90;;;;;;5077256;28;19924;-68
2022/01/08 04:38:11;;;;;;;3.15;0.45;;;0.70;99.90;;;;;;5076497;28;20044;-68
2022/01/08 04:40:38;;;;;;;1.55;0.57;;;0.70;99.90;;;;;;5076115;28;20044;-68
2022/01/08 04:43:05;;;;;;;0.32;0.32;;;0.70;99.90;;;;;;5076141;28;20048;-68
2022/01/08 04:45:32;;;;;;;2.80;0.55;;;0.70;99.90;;;;;;5077284;28;20036;-68
2022/01/08 04:48:01;;;;;;;0.47;0.47;;;0.70;99.90;;;;;;5076621;28;20504;-68
2022/01/08 04:50:29;;;;;;;2.10;0.52;;;0.70;99.90;;;;;;5075554;28;20085;-67
2022/01/08 04:52:57;;;;;;;0.77;0.50;;;0.60;99.90;;;;;;5076491;28;20068;-69
2022/01/08 04:55:25;;;;;;;0.55;0.50;;;0.60;99.90;;;;;;5075548;28;20048;-68
2022/01/08 04:57:52;;;;;;;0.50;0.50;;;0.60;99.90;;;;;;5076164;28;20915;-68
2022/01/08 05:00:20;;;;;;;0.90;0.80;;;0.60;99.90;;;;;;5075384;28;20056;-68
2022/01/08 05:02:48;;;;;;;1.20;0.77;;;0.70;99.90;;;;;;5075751;28;20382;-68
2022/01/08 05:05:15;;;;;;;1.20;1.08;;;0.70;99.90;;;;;;5076989;28;20134;-68
2022/01/08 05:07:42;;;;;;;1.98;1.55;;;0.80;99.90;;;;;;5076283;28;20113;-68
2022/01/08 05:10:10;;;;;;;2.08;1.75;;;0.80;99.90;;;;;;5075805;28;20525;-67
2022/01/08 05:12:37;;;;;;;3.08;1.48;;;0.80;99.90;;;;;;5077002;28;20731;-68
2022/01/08 05:15:05;;;;;;;1.67;1.25;;;0.80;99.90;;;;;;5073530;28;20044;-68
2022/01/08 05:17:35;;;;;;;1.30;1.00;;;0.80;99.90;;;;;;5076338;28;20425;-67
2022/01/08 05:20:08;;;;;;;1.13;1.02;;;0.80;99.90;;;;;;5074666;28;20514;-68
2022/01/08 05:25:16;;;;;;;3.60;0.95;;;0.80;99.90;;;;;;5076075;28;20040;-68
2022/01/08 05:27:44;;;;;;;0.80;0.80;;;0.80;99.90;;;;;;5076099;28;20048;-68
2022/01/08 05:30:12;;;;;;;1.52;1.35;;;0.70;99.90;;;;;;5075432;28;20043;-67
2022/01/08 05:32:39;;;;;;;0.65;0.60;;;0.80;99.90;;;;;;5074991;28;20241;-68
2022/01/08 05:35:06;;;;;;;0.68;0.60;;;0.80;99.90;;;;;;5075957;28;20275;-68
2022/01/08 05:37:33;;;;;;;0.80;0.80;;;0.80;99.90;;;;;;5076986;28;20051;-68
2022/01/08 05:40:00;;;;;;;0.70;0.70;;;0.80;99.90;;;;;;5074605;28;20231;-68
2022/01/08 05:42:27;;;;;;;0.90;0.80;;;0.80;99.90;;;;;;5076193;28;20063;-68
2022/01/08 05:44:53;;;;;;;;;;;0.90;99.90;;;;;;5075764;28;20044;-68
2022/01/08 05:47:21;;;;;;;1.42;1.02;;;0.90;99.90;;;;;;5074323;28;19924;-69
2022/01/08 05:49:48;;;;;;;2.03;1.10;;;1.00;99.90;;;;;;5075314;28;20040;-68
2022/01/08 05:52:15;;;;;;;;;;;1.00;99.90;;;;;;5076144;28;20279;-69
2022/01/08 05:54:42;;;;;;;1.35;0.90;;;1.10;99.90;;;;;;5075237;28;19924;-68
2022/01/08 05:57:10;;;;;;;3.15;1.30;;;1.10;99.90;;;;;;5073685;28;20040;-69
2022/01/08 05:59:37;;;;;;;2.42;1.50;;;1.10;99.90;;;;;;5088521;28;20089;-69
2022/01/08 06:02:05;;;;;;;2.33;1.60;;;1.10;99.90;;;;;;5095103;28;20051;-69
2022/01/08 06:04:32;;;;;;;2.20;1.90;;;1.00;99.90;;;;;;5095157;28;20056;-69
2022/01/08 06:06:59;;;;;;;4.25;1.83;;;0.90;99.90;;;;;;5096078;28;20554;-70
2022/01/08 06:09:26;;;;;;;2.83;1.92;;;0.90;99.90;;;;;;5093895;28;20167;-69
2022/01/08 06:11:53;;;;;;;;;;;0.80;99.90;;;;;;5097284;28;20054;-70
2022/01/08 06:14:19;;;;;;;3.53;2.40;;;0.80;99.90;;;;;;5096359;28;19920;-70
2022/01/08 06:16:47;;;;;;;3.03;2.20;;;0.70;99.90;;;;;;5093035;28;20048;-70
2022/01/08 06:19:17;;;;;;;2.60;2.28;;;0.70;99.90;;;;;;5075132;28;20040;-70
2022/01/08 06:21:44;;;;;;;6.40;3.35;;;0.70;99.90;;;;;;5074893;28;20097;-70
2022/01/08 06:24:12;;;;;;;5.07;3.30;;;0.60;99.90;;;;;;5075278;28;20044;-70
2022/01/08 06:26:38;;;;;;;;;;;0.60;99.90;;;;;;5076557;28;20043;-69
2022/01/08 06:29:05;;;;;;;5.90;3.85;;;0.60;99.90;;;;;;5073632;28;20146;-70
2022/01/08 06:31:32;;;;;;;;;;;0.60;99.90;;;;;;5076227;28;20041;-69
2022/01/08 06:33:59;;;;;;;3.38;2.85;;;0.60;99.90;;;;;;5074710;28;20193;-69
2022/01/08 06:36:25;;;;;;;1.95;1.63;;;0.60;99.90;;;;;;5075555;28;20048;-69
2022/01/08 06:38:53;;;;;;;1.85;1.67;;;0.60;99.90;;;;;;5074408;28;20544;-69
2022/01/08 06:41:20;;;;;;;4.90;1.50;;;0.60;99.90;;;;;;5074665;28;20873;-69
2022/01/08 06:43:47;;;;;;;2.35;1.65;;;0.70;99.90;;;;;;5075381;28;20461;-69
2022/01/08 06:46:14;;;;;;;1.45;1.35;;;0.70;99.90;;;;;;5074157;28;20143;-69
2022/01/08 06:48:41;;;;;;;1.33;1.15;;;0.70;99.90;;;;;;5074817;28;20485;-69
2022/01/08 06:51:09;;;;;;;4.60;1.33;;;0.80;99.90;;;;;;5074634;28;20209;-69
2022/01/08 06:53:36;;;;;;;1.45;1.35;;;0.80;99.90;;;;;;5074244;28;20048;-69
2022/01/08 06:56:03;;;;;;;1.35;1.17;;;0.80;99.90;;;;;;5075979;28;20098;-69
2022/01/08 06:58:30;;;;;;;2.13;1.50;;;0.80;99.90;;;;;;5074295;28;20542;-69
2022/01/08 07:00:56;;;;;;;;;;;0.80;99.90;;;;;;5072792;28;20129;-70
2022/01/08 07:03:23;;;;;;;1.48;1.10;;;0.90;99.90;;;;;;5075534;28;20018;-70
2022/01/08 07:05:50;;;;;;;1.38;1.27;;;0.90;99.90;;;;;;5075107;28;20040;-69
2022/01/08 07:08:17;;;;;;;2.15;1.35;;;0.90;99.90;;;;;;5077337;28;20610;-70
2022/01/08 07:10:44;;;;;;;;;;;1.00;99.90;;;;;;5076620;28;20052;-70
2022/01/08 07:13:10;;;;;;;1.17;0.80;;;1.00;99.90;;;;;;5078336;28;20730;-70
2022/01/08 07:15:37;;;;;;;2.88;1.30;;;1.00;99.90;;;;;;5078530;28;20047;-70
2022/01/08 07:18:04;;;;;;;;;;;1.10;99.90;;;;;;5078702;28;20547;-69
2022/01/08 07:20:31;;;;;;;0.93;0.90;;;1.10;99.90;;;;;;5078144;28;19920;-70
2022/01/08 07:22:59;;;;;;;;;;;1.10;99.90;;;;;;5078715;28;20490;-60
2022/01/08 07:25:26;;;;;;;0.93;0.88;;;1.20;99.90;;;;;;5078214;28;19924;-59
2022/01/08 07:27:53;;;;;;;1.90;1.80;;;1.10;99.90;;;;;;5078368;28;20490;-60
2022/01/08 07:30:20;;;;;;;1.20;0.90;;;1.20;99.90;;;;;;5077103;28;20032;-60
2022/01/08 07:32:49;;;;;;;1.10;1.00;;;1.10;99.90;;;;;;5078566;28;20074;-59
2022/01/08 07:35:21;;;;;;;3.45;1.30;;;1.20;99.90;;;;;;5077735;28;20040;-60
2022/01/08 07:37:52;;;;;;;0.95;0.90;;;1.20;99.90;;;;;;5078507;28;20056;-59
2022/01/08 07:40:20;;;;;;;0.90;0.90;;;1.20;99.90;;;;;;5077546;28;20044;-60
2022/01/08 07:42:47;;;;;;;0.60;0.60;;;1.20;99.90;;;;;;5078017;28;20562;-60
2022/01/08 07:45:14;;;;;;;1.23;1.13;;;1.20;99.90;;;;;;5077691;28;20052;-60
2022/01/08 07:47:41;;;;;;;1.13;0.85;;;1.20;99.90;;;;;;5077964;28;20117;-60
2022/01/08 07:50:08;;;;;;;1.05;1.00;;;1.20;99.90;;;;;;5077124;28;20525;-60
2022/01/08 07:52:35;;;;;;;0.95;0.93;;;1.20;99.90;;;;;;5077296;28;20063;-60
2022/01/08 07:55:03;;;;;;;0.88;0.70;;;1.20;99.90;;;;;;5076540;28;20040;-59
2022/01/08 07:57:29;;;;;;;1.67;1.00;;;1.20;99.90;;;;;;5077920;28;20101;-60
2022/01/08 07:59:56;;;;;;;;;;;1.20;99.90;;;;;;5076617;28;20109;-60
2022/01/08 08:02:23;;;;;;;0.63;0.63;;;1.20;99.90;;;;;;5076608;28;19928;-60
2022/01/08 08:04:50;;;;;;;0.82;0.80;;;1.20;99.90;;;;;;5077861;28;20052;-60
2022/01/08 08:07:29;;;;;;;;;;;1.20;99.90;;;;;;5077351;28;20047;-60
2022/01/08 08:09:56;;;;;;;0.80;0.80;;;1.20;99.90;;;;;;5077239;28;20427;-60
2022/01/08 08:12:23;;;;;;;0.82;0.70;;;1.10;99.90;;;;;;5077293;28;20564;-60
2022/01/08 08:14:50;;;;;;;1.88;1.00;;;1.10;99.90;;;;;;5077187;28;20036;-60
2022/01/08 08:17:17;;;;;;;;;;;1.10;99.90;;;;;;5078384;28;20105;-60
2022/01/08 08:19:43;;;;;;;1.00;0.93;;;1.10;99.90;;;;;;5074548;28;19946;-60
2022/01/08 08:22:10;;;;;;;;;;;1.00;99.90;;;;;;5078572;28;20044;-60
2022/01/08 08:24:37;;;;;;;1.70;1.00;;;1.00;99.90;;;;;;5076839;28;19928;-60
2022/01/08 08:27:05;;;;;;;1.80;1.55;;;0.90;99.90;;;;;;5077749;28;20040;-60
2022/01/08 08:29:31;;;;;;;1.00;0.70;;;0.90;99.90;;;;;;5076272;28;20133;-61
2022/01/08 08:31:58;;;;;;;0.85;0.70;;;0.90;99.90;;;;;;5077068;28;20051;-60
2022/01/08 08:34:25;;;;;;;0.73;0.73;;;0.90;99.90;;;;;;5077631;28;20036;-60
2022/01/08 08:36:52;;;;;;;;;;;0.80;99.90;;;;;;5077107;28;20047;-60
2022/01/08 08:39:19;;;;;;;0.75;0.75;;;0.80;99.90;;;;;;5075986;28;20121;-60
2022/01/08 08:41:45;;;;;;;;;;;0.80;99.90;;;;;;5077943;28;20721;-60
2022/01/08 08:44:12;;;;;;;2.17;1.20;;;0.80;99.90;;;;;;5075703;28;19931;-61
2022/01/08 08:46:40;;;;;;;2.30;1.17;;;0.80;99.90;;;;;;5076828;28;20048;-59
2022/01/08 08:49:06;;;;;;;;;;;0.90;99.90;;;;;;5075797;28;20272;-60
2022/01/08 08:51:33;;;;;;;2.70;1.02;;;0.80;99.90;;;;;;5076737;28;19935;-59
2022/01/08 08:54:00;;;;;;;;;;;0.90;99.90;;;;;;5076675;28;20247;-60
2022/01/08 08:56:28;;;;;;;4.13;1.08;;;0.90;99.90;;;;;;5076276;28;20435;-60
2022/01/08 08:58:56;;;;;;;1.83;1.20;;;0.90;99.90;;;;;;5076039;28;20056;-60
2022/01/08 09:01:25;;;;;;;2.22;1.00;;;0.90;99.90;;;;;;5075349;28;20549;-59
2022/01/08 09:03:53;;;;;;;1.42;1.33;;;0.90;99.90;;;;;;5074149;28;20349;-60
2022/01/08 09:06:20;;;;;;;1.80;1.30;;;0.90;99.90;;;;;;5075352;28;20047;-59
2022/01/08 09:08:48;;;;;;;2.17;1.13;;;0.90;99.90;;;;;;5075310;28;20399;-60
2022/01/08 09:11:15;;;;;;;7.40;1.30;;;0.90;99.90;;;;;;5076235;28;20060;-59
2022/01/08 09:13:42;;;;;;;;;;;1.00;99.90;;;;;;5074208;28;20412;-59
2022/01/08 09:16:09;;;;;;;3.50;1.30;;;1.00;99.90;;;;;;5076430;28;20128;-59
2022/01/08 09:18:37;;;;;;;1.73;1.15;;;1.10;99.90;;;;;;5075963;28;20268;-59
2022/01/08 09:21:05;;;;;;;2.15;0.90;;;1.10;99.90;;;;;;5074330;28;20047;-59
2022/01/08 09:23:33;;;;;;;2.53;1.35;;;1.10;99.90;;;;;;5076483;28;20043;-59
2022/01/08 09:26:01;;;;;;;3.30;1.13;;;1.10;99.90;;;;;;5075563;28;20493;-60
2022/01/08 09:28:28;;;;;;;7.60;1.48;;;1.10;99.90;;;;;;5076315;28;20052;-60
2022/01/08 09:30:55;;;;;;;2.90;1.45;;;1.20;99.90;;;;;;5074230;28;20469;-60
2022/01/08 09:33:23;;;;;;;1.20;1.10;;;1.40;99.90;;;;;;5075568;28;20069;-60
2022/01/08 09:35:51;;;;;;;2.50;1.27;;;1.60;99.90;;;;;;5076116;28;20043;-59
2022/01/08 09:38:19;;;;;;;0.98;0.90;;;2.00;99.90;;;;;;5075514;28;20056;-60
2022/01/08 09:40:49;;;;;;;2.97;1.08;;;2.40;99.90;;;;;;5074979;28;20837;-60
2022/01/08 09:43:17;;;;;;;12.35;5.43;;;2.70;99.90;;;;;;5075257;28;20688;-63
2022/01/08 09:45:45;;;;;;;6.85;1.77;;;2.90;99.90;;;;;;5075602;28;20056;-56
2022/01/08 09:48:11;;;;;;;1.95;0.75;;;3.10;99.90;;;;;;5073620;28;20075;-56
2022/01/08 09:50:40;;;;;;;6.70;1.20;;;3.20;99.90;;;;;;5073043;28;20501;-59
2022/01/08 09:53:07;;;;;;;3.60;1.17;;;3.30;99.90;;;;;;5074455;28;20397;-56
2022/01/08 09:55:34;;;;;;;3.88;1.25;;;3.50;99.90;;;;;;5073680;28;20085;-59
2022/01/08 09:58:02;;;;;;;3.53;1.08;;;3.60;99.90;;;;;;5074215;28;20529;-59
2022/01/08 10:00:31;;;;;;;1.60;1.00;;;3.70;99.90;;;;;;5074720;28;20048;-59
2022/01/08 10:03:22;;;;;;;2.45;1.60;;;3.80;99.90;;;;;;5073158;28;20293;-56
2022/01/08 10:05:55;;;;;;;7.07;5.03;;;3.90;99.90;;;;;;5074271;28;20052;-57
2022/01/08 10:08:42;;;;;;;7.55;1.70;;;3.90;99.90;;;;;;5072753;28;20133;-56
2022/01/08 10:11:09;;;;;;;2.28;1.00;;;3.90;99.90;;;;;;5073171;28;20228;-56
2022/01/08 10:13:39;;;;;;;;;;;3.80;99.90;;;;;;5073724;28;20051;-57
2022/01/08 10:19:02;;;;;;;3.97;1.13;;;3.50;99.90;;;;;;5065170;28;20127;-57
2022/01/08 10:21:37;;;;;;;1.80;1.33;;;3.40;99.90;;;;;;5072633;28;20429;-57
2022/01/08 10:24:08;;;;;;;4.22;1.20;;;3.30;99.90;;;;;;5074072;28;20066;-56
2022/01/08 10:26:36;;;;;;;2.35;0.70;;;3.30;99.90;;;;;;5073984;28;20498;-56
2022/01/08 10:29:06;;;;;;;2.72;1.00;;;3.20;99.90;;;;;;5070821;28;20658;-58
2022/01/08 10:31:34;;;;;;;1.80;0.82;;;3.10;99.90;;;;;;5071771;28;20424;-58
2022/01/08 10:34:00;;;;;;;2.97;1.20;;;3.20;99.90;;;;;;5070500;28;20047;-58
2022/01/08 10:36:32;;;;;;;3.20;1.02;;;3.30;99.90;;;;;;5072464;28;20276;-58
2022/01/08 10:39:02;;;;;;;3.35;1.65;;;3.40;99.90;;;;;;5070836;28;20378;-58
2022/01/08 10:41:29;;;;;;;5.75;1.20;;;3.30;99.90;;;;;;5072522;28;20054;-58
2022/01/08 10:44:06;;;;;;;4.68;1.15;;;3.30;99.90;;;;;;5076583;28;20048;-57
2022/01/08 10:46:34;;;;;;;1.30;1.20;;;3.20;99.90;;;;;;5078410;28;20066;-58
2022/01/08 10:49:01;;;;;;;1.77;1.60;;;3.10;99.90;;;;;;5077817;28;20048;-58
2022/01/08 10:51:34;;;;;;;1.17;1.00;;;3.00;99.90;;;;;;5077608;28;20040;-58
2022/01/08 10:54:11;;;;;;;4.20;1.15;;;2.80;99.90;;;;;;5078164;28;20044;-57
2022/01/08 10:56:46;;;;;;;5.07;1.77;;;2.70;99.90;;;;;;5078283;28;20055;-57
2022/01/08 10:59:18;;;;;;;2.78;1.88;;;2.70;99.90;;;;;;5077397;28;20628;-58
2022/01/08 11:01:51;;;;;;;3.67;1.75;;;2.50;99.90;;;;;;5078228;28;20051;-58
2022/01/08 11:04:34;;;;;;;2.17;1.08;;;2.40;99.90;;;;;;5075915;28;20052;-58
2022/01/08 11:07:06;;;;;;;2.13;1.00;;;2.30;99.90;;;;;;5078277;28;20654;-57
2022/01/08 11:09:35;;;;;;;2.67;1.10;;;2.20;99.90;;;;;;5075969;28;20060;-57
2022/01/08 11:12:05;;;;;;;2.60;1.60;;;2.20;99.90;;;;;;5078165;28;20068;-57
2022/01/08 11:17:22;;;;;;;2.22;1.02;;;2.20;99.90;;;;;;5077851;28;20055;-58
2022/01/08 11:19:51;;;;;;;1.25;0.90;;;2.20;99.90;;;;;;5077067;28;20048;-58
2022/01/08 11:22:21;;;;;;;2.03;1.20;;;2.30;99.90;;;;;;5077190;28;20056;-58
2022/01/08 11:25:03;;;;;;;2.67;1.17;;;2.30;99.90;;;;;;5078170;28;20050;-58
2022/01/08 11:27:39;;;;;;;4.57;1.08;;;2.30;99.90;;;;;;5077796;28;20040;-57
2022/01/08 11:30:09;;;;;;;1.63;1.08;;;2.30;99.90;;;;;;5076987;28;20055;-58
2022/01/08 11:32:37;;;;;;;2.45;1.48;;;2.30;99.90;;;;;;5077948;28;20400;-58
2022/01/08 11:35:25;;;;;;;1.85;1.55;;;2.30;99.90;;;;;;5077261;28;20162;-58
2022/01/08 11:37:55;;;;;;;1.25;1.10;;;2.30;99.90;;;;;;5078238;28;20105;-58
2022/01/08 11:40:25;;;;;;;2.28;0.85;;;2.40;99.90;;;;;;5076650;28;20302;-57
2022/01/08 11:42:53;;;;;;;1.45;1.10;;;2.30;99.90;;;;;;5077129;28;20055;-58
2022/01/08 11:45:28;;;;;;;5.32;1.05;;;2.40;99.90;;;;;;5077630;28;20366;-58
2022/01/08 11:47:57;;;;;;;1.52;0.90;;;2.40;99.90;;;;;;5077452;28;20059;-58
2022/01/08 11:50:28;;;;;;;1.42;1.05;;;2.50;99.90;;;;;;5076045;28;20036;-58
2022/01/08 11:53:10;;;;;;;2.92;1.83;;;2.50;99.90;;;;;;5076512;28;20091;-58
2022/01/08 11:55:37;;;;;;;1.25;0.98;;;2.70;99.90;;;;;;5077268;28;20474;-58
2022/01/08 11:58:20;;;;;;;1.67;1.08;;;2.80;99.90;;;;;;5077403;28;20056;-60
2022/01/08 12:00:59;;;;;;;1.13;0.70;;;2.90;99.90;;;;;;5076244;28;20071;-57
2022/01/08 12:03:41;;;;;;;1.38;1.23;;;3.00;99.90;;;;;;5076564;28;20055;-57
2022/01/08 12:06:33;;;;;;;2.33;1.67;;;3.10;99.90;;;;;;5075005;28;20054;-57
2022/01/08 12:09:20;;;;;;;5.82;3.05;;;3.20;99.90;;;;;;5074515;28;20290;-55
2022/01/08 12:11:47;;;;;;;10.85;4.03;;;3.20;99.90;;;;;;5074677;28;20340;-54
2022/01/08 12:14:16;;;;;;;11.23;4.50;;;3.20;99.90;;;;;;5077216;28;20044;-55
2022/01/08 12:16:48;;;;;;;3.33;1.55;;;3.30;99.90;;;;;;5076608;28;20047;-55
2022/01/08 12:19:34;;;;;;;1.08;1.02;;;3.30;99.90;;;;;;5074172;28;20051;-55
2022/01/08 12:22:21;;;;;;;0.80;0.73;;;3.30;99.90;;;;;;5076786;28;20564;-56
2022/01/08 12:24:58;;;;;;;1.13;0.90;;;3.30;99.90;;;;;;5077425;28;20052;-57
2022/01/08 12:27:34;;;;;;;0.98;0.75;;;3.30;99.90;;;;;;5078165;28;20048;-55
2022/01/08 12:30:05;;;;;;;1.02;0.93;;;3.30;99.90;;;;;;5075821;28;20048;-55
2022/01/08 12:32:36;;;;;;;2.47;1.10;;;3.20;99.90;;;;;;5076640;28;20039;-55
2022/01/08 12:35:03;;;;;;;6.05;3.25;;;3.30;99.90;;;;;;5075518;28;20132;-54
2022/01/08 12:37:38;;;;;;;9.13;6.63;;;3.30;99.90;;;;;;5076714;28;20286;-54
2022/01/08 12:40:08;;;;;;;10.30;5.10;;;3.20;99.90;;;;;;5075176;28;20457;-54
2022/01/08 12:42:37;;;;;;;5.97;2.70;;;3.20;99.90;;;;;;5075429;28;20574;-54
2022/01/08 12:45:07;;;;;;;4.68;1.58;;;3.10;99.90;;;;;;5074983;28;20464;-54
2022/01/08 12:47:42;;;;;;;5.07;2.90;;;3.10;99.90;;;;;;5075681;28;20121;-54
2022/01/08 12:50:25;;;;;;;2.92;2.03;;;3.00;99.90;;;;;;5075273;28;20388;-58
2022/01/08 12:53:11;;;;;;;5.53;2.38;;;2.90;99.90;;;;;;5074853;28;20835;-58
2022/01/08 12:55:53;;;;;;;2.60;1.52;;;2.90;99.90;;;;;;5066791;28;20044;-58
2022/01/08 12:58:23;;;;;;;1.60;1.50;;;2.80;99.90;;;;;;5076694;28;20044;-54
2022/01/08 13:00:59;;;;;;;2.08;1.10;;;2.70;99.90;;;;;;5072818;28;20056;-58
2022/01/08 13:03:28;;;;;;;1.35;1.00;;;2.70;99.90;;;;;;5075766;28;20052;-54
2022/01/08 13:06:18;;;;;;;2.58;1.00;;;2.60;99.90;;;;;;5072820;28;20330;-54
2022/01/08 13:08:50;;;;;;;1.00;0.82;;;2.60;99.90;;;;;;5073432;28;20109;-54
2022/01/08 13:11:19;;;;;;;1.10;0.77;;;2.60;99.90;;;;;;5074045;28;20136;-54
2022/01/08 13:13:49;;;;;;;0.70;0.65;;;2.60;99.90;;;;;;5075569;28;20036;-54
2022/01/08 13:16:25;;;;;;;1.02;0.75;;;2.60;99.90;;;;;;5076177;28;20124;-54
2022/01/08 13:19:03;;;;;;;1.40;1.00;;;2.60;99.90;;;;;;5072254;28;20051;-54
2022/01/08 13:21:34;;;;;;;6.57;1.10;;;2.60;99.90;;;;;;5073721;28;20515;-54
2022/01/08 13:24:10;;;;;;;6.15;1.15;;;2.60;99.90;;;;;;5073648;28;20044;-54
2022/01/08 13:26:40;;;;;;;43.70;12.00;;;2.60;99.90;;;;;;5074347;28;20058;-54
2022/01/08 13:29:28;;;;;;;61.15;16.65;;;2.60;99.90;;;;;;5075039;28;20052;-54
2022/01/08 13:31:58;;;;;;;4.07;1.90;;;2.60;99.90;;;;;;5073732;28;20460;-55
2022/01/08 13:34:29;;;;;;;2.10;1.20;;;2.60;99.90;;;;;;5075662;28;20245;-56
2022/01/08 13:37:11;;;;;;;3.75;1.30;;;2.60;99.90;;;;;;5075270;28;20699;-58